Time;durP1;ratioP1;P1;durP2;ratioP2;P2;SDS_P1;SDS_P2;PMS_P1;PMS_P2;Temp;Humidity;BMP_temperature;BMP_pressure;BME280_temperature;BME280_humidity;BME280_pressure;Samples;Min_cycle;Max_cycle;Signal;HPM_P1;HPM_P2
2022/06/30 00:02:22;;;;;;;6.82;6.43;;;;;;;17.98;100.00;100846.09;6027452;23;20022;-71
2022/06/30 00:04:49;;;;;;;6.05;5.65;;;;;;;17.83;100.00;100810.13;6054079;23;20114;-71
2022/06/30 00:07:16;;;;;;;9.15;8.43;;;;;;;18.01;100.00;100837.03;6059452;23;20081;-73
2022/06/30 00:09:43;;;;;;;6.22;5.90;;;;;;;18.01;100.00;100843.19;6057786;23;20511;-75
2022/06/30 00:12:10;;;;;;;7.15;6.82;;;;;;;17.06;100.00;100718.09;6044470;23;20088;-67
2022/06/30 00:14:36;;;;;;;5.82;5.53;;;;;;;16.62;100.00;100619.03;6047832;23;20022;-67
2022/06/30 00:17:04;;;;;;;6.72;6.43;;;;;;;17.99;100.00;100841.63;6049147;23;20031;-67
2022/06/30 00:19:32;;;;;;;5.78;5.47;;;;;;;17.97;100.00;100841.75;6045548;23;20071;-71
2022/06/30 00:21:58;;;;;;;5.60;5.30;;;;;;;17.89;100.00;100820.28;6042143;23;20029;-77
2022/06/30 00:24:25;;;;;;;5.95;5.65;;;;;;;17.97;100.00;100831.13;6058478;23;20018;-72
2022/06/30 00:26:52;;;;;;;6.03;5.72;;;;;;;17.87;100.00;100823.06;6041752;23;20171;-72
2022/06/30 00:29:19;;;;;;;5.82;5.53;;;;;;;16.50;100.00;100583.78;6041914;23;20217;-71
2022/06/30 00:31:46;;;;;;;5.90;5.60;;;;;;;16.31;100.00;100563.19;6040538;23;20023;-70
2022/06/30 00:34:12;;;;;;;7.15;6.78;;;;;;;17.87;100.00;100814.25;6042545;23;20022;-71
2022/06/30 00:36:39;;;;;;;5.43;5.22;;;;;;;16.74;100.00;100644.59;6029917;23;20042;-75
2022/06/30 00:39:05;;;;;;;7.03;6.68;;;;;;;16.60;100.00;100613.03;6051280;23;20384;-73
2022/06/30 00:41:32;;;;;;;5.78;5.47;;;;;;;17.60;100.00;100774.81;6029316;23;20074;-71
2022/06/30 00:43:58;;;;;;;5.40;5.20;;;;;;;17.65;100.00;100794.72;6056187;23;20042;-76
2022/06/30 00:46:25;;;;;;;6.03;5.63;;;;;;;17.84;100.00;100817.13;6042909;23;20010;-75
2022/06/30 00:48:52;;;;;;;6.50;5.80;;;;;;;16.45;100.00;100597.38;6026204;23;20320;-74
2022/06/30 00:51:23;;;;;;;6.32;5.93;;;;;;;17.76;100.00;100846.97;6051702;23;20383;-75
2022/06/30 00:53:52;;;;;;;6.07;5.78;;;;;;;17.75;100.00;100805.44;6045127;23;20038;-72
2022/06/30 00:56:20;;;;;;;7.30;6.85;;;;;;;17.71;100.00;100815.44;6052629;23;20640;-72
2022/06/30 00:58:51;;;;;;;5.65;5.40;;;;;;;17.67;100.00;100814.00;6024029;23;20019;-72
2022/06/30 01:01:18;;;;;;;6.97;6.65;;;;;;;17.55;100.00;100791.94;6037869;23;20445;-72
2022/06/30 01:03:46;;;;;;;6.00;5.70;;;;;;;17.70;100.00;100807.59;6022453;23;20404;-72
2022/06/30 01:06:13;;;;;;;7.65;7.25;;;;;;;17.66;100.00;100853.94;6059150;23;20026;-73
2022/06/30 01:08:40;;;;;;;6.20;5.90;;;;;;;17.74;100.00;100831.16;6026180;23;20085;-69
2022/06/30 01:13:52;;;;;;;6.57;6.18;;;;;;;17.73;100.00;100826.78;6023789;23;20011;-72
2022/06/30 01:16:21;;;;;;;6.20;5.90;;;;;;;17.74;100.00;100817.03;6022016;23;20304;-70
2022/06/30 01:18:48;;;;;;;6.20;5.82;;;;;;;15.92;100.00;100542.34;6056306;23;20528;-71
2022/06/30 01:21:16;;;;;;;7.32;6.93;;;;;;;17.57;100.00;100789.19;6054855;23;20030;-70
2022/06/30 01:23:43;;;;;;;5.78;5.32;;;;;;;17.73;100.00;100828.59;6047404;23;20573;-73
2022/06/30 01:26:10;;;;;;;8.38;7.82;;;;;;;17.70;100.00;100823.53;6057019;23;20084;-72
2022/06/30 01:28:36;;;;;;;6.28;5.97;;;;;;;17.20;100.00;100747.03;5997577;23;20039;-74
2022/06/30 01:31:03;;;;;;;6.82;6.35;;;;;;;17.68;100.00;100833.44;6050619;23;20090;-70
2022/06/30 01:33:29;;;;;;;6.32;6.03;;;;;;;17.66;100.00;100844.19;6021071;23;20026;-72
2022/06/30 01:35:56;;;;;;;5.80;5.50;;;;;;;17.65;100.00;100826.56;6055607;23;20603;-70
2022/06/30 01:38:23;;;;;;;5.68;5.38;;;;;;;17.64;100.00;100826.69;6024946;23;20641;-74
2022/06/30 01:40:50;;;;;;;6.82;6.35;;;;;;;17.06;100.00;100734.00;6050022;23;20060;-72
2022/06/30 01:43:16;;;;;;;7.75;7.25;;;;;;;16.42;100.00;100633.88;6051736;23;20185;-71
2022/06/30 01:45:43;;;;;;;5.90;5.60;;;;;;;17.33;100.00;100773.41;6020291;23;20026;-70
2022/06/30 01:48:10;;;;;;;8.43;8.00;;;;;;;17.58;100.00;100816.56;6044307;23;20026;-70
2022/06/30 01:50:36;;;;;;;6.13;5.82;;;;;;;17.55;100.00;100807.88;6054468;23;20186;-71
2022/06/30 01:53:03;;;;;;;6.35;6.05;;;;;;;15.94;100.00;100566.06;6028642;23;20018;-75
2022/06/30 01:55:30;;;;;;;5.72;5.47;;;;;;;17.13;100.00;100759.91;6053627;23;20098;-71
2022/06/30 01:57:57;;;;;;;6.28;5.90;;;;;;;17.55;100.00;100805.22;6026182;23;20354;-71
2022/06/30 02:00:26;;;;;;;6.28;5.97;;;;;;;17.27;100.00;100764.13;6046283;23;20015;-73
2022/06/30 02:02:54;;;;;;;6.03;5.72;;;;;;;17.54;100.00;100808.84;6032564;23;20573;-73
2022/06/30 02:05:21;;;;;;;6.43;6.07;;;;;;;17.52;100.00;100809.94;6051641;23;20146;-73
2022/06/30 02:07:48;;;;;;;6.07;5.78;;;;;;;17.50;100.00;100823.34;6034949;23;20018;-70
2022/06/30 02:10:19;;;;;;;7.40;7.00;;;;;;;16.13;100.00;100606.00;6047203;23;20430;-69
2022/06/30 02:12:46;;;;;;;5.60;5.30;;;;;;;17.45;100.00;100814.88;6062371;23;20017;-70
2022/06/30 02:15:33;;;;;;;7.35;6.85;;;;;;;17.41;100.00;100812.59;6019414;23;20033;-72
2022/06/30 02:18:06;;;;;;;5.70;5.40;;;;;;;17.40;100.00;100824.16;6047281;23;20025;-73
2022/06/30 02:20:33;;;;;;;6.57;6.18;;;;;;;17.34;100.00;100826.34;6046207;23;20408;-74
2022/06/30 02:23:01;;;;;;;5.90;5.60;;;;;;;17.13;100.00;100796.19;6048905;23;20420;-74
2022/06/30 02:25:30;;;;;;;6.45;6.13;;;;;;;15.84;100.00;100580.97;6054759;23;20079;-70
2022/06/30 02:27:57;;;;;;;6.43;5.88;;;;;;;16.94;100.00;100759.69;6044640;23;20035;-75
2022/06/30 02:30:24;;;;;;;5.55;5.25;;;;;;;17.30;100.00;100846.13;6025628;23;20571;-70
2022/06/30 02:32:51;;;;;;;6.43;5.88;;;;;;;17.29;100.00;100835.63;6025803;23;20089;-75
2022/06/30 02:35:18;;;;;;;7.07;6.57;;;;;;;17.26;100.00;100831.41;6048757;23;20813;-71
2022/06/30 02:37:44;;;;;;;5.90;5.60;;;;;;;17.26;100.00;100838.50;6025727;23;20029;-72
2022/06/30 02:40:11;;;;;;;7.28;6.88;;;;;;;15.98;100.00;100640.78;6044405;23;20104;-72
2022/06/30 02:42:38;;;;;;;6.20;5.90;;;;;;;15.77;100.00;100575.28;6002370;23;20451;-71
2022/06/30 02:45:05;;;;;;;6.25;5.95;;;;;;;17.37;100.00;100830.56;6049805;23;20090;-74
2022/06/30 02:47:33;;;;;;;5.72;5.43;;;;;;;17.40;100.00;100825.03;6018812;23;20685;-73
2022/06/30 02:50:06;;;;;;;6.20;5.80;;;;;;;17.41;100.00;100832.00;6046790;23;20054;-75
2022/06/30 02:52:33;;;;;;;5.72;5.43;;;;;;;17.42;100.00;100825.75;6019312;23;20035;-73
2022/06/30 02:55:01;;;;;;;6.55;6.07;;;;;;;17.42;100.00;100820.44;6043271;23;20144;-75
2022/06/30 02:57:28;;;;;;;5.57;5.32;;;;;;;16.53;100.00;100682.38;6031247;23;20457;-71
2022/06/30 02:59:54;;;;;;;5.60;5.30;;;;;;;17.23;100.00;100793.69;6042445;23;20304;-73
2022/06/30 03:02:21;;;;;;;7.15;6.75;;;;;;;17.38;100.00;100818.13;6018341;23;20342;-74
2022/06/30 03:04:48;;;;;;;5.50;5.20;;;;;;;16.51;100.00;100688.78;6050576;23;20018;-72
2022/06/30 03:07:15;;;;;;;7.28;6.90;;;;;;;17.31;100.00;100828.41;6053335;23;20033;-74
2022/06/30 03:09:42;;;;;;;6.07;5.68;;;;;;;17.27;100.00;100859.63;6046199;23;20543;-75
2022/06/30 03:12:09;;;;;;;7.10;6.80;;;;;;;17.21;100.00;100830.09;6022686;23;20034;-70
2022/06/30 03:14:36;;;;;;;6.22;5.88;;;;;;;17.17;100.00;100816.22;6046582;23;20460;-74
2022/06/30 03:17:03;;;;;;;5.93;5.63;;;;;;;17.00;100.00;100806.06;6050207;23;20039;-74
2022/06/30 03:19:29;;;;;;;5.70;5.40;;;;;;;17.12;100.00;100819.22;6053510;23;20514;-73
2022/06/30 03:21:56;;;;;;;6.05;5.43;;;;;;;17.21;100.00;100838.03;6030165;23;20081;-72
2022/06/30 03:24:22;;;;;;;7.22;6.60;;;;;;;17.23;100.00;100825.50;6046400;23;20082;-76
2022/06/30 03:26:49;;;;;;;6.32;6.00;;;;;;;17.25;100.00;100826.22;6042677;23;20014;-73
2022/06/30 03:29:16;;;;;;;7.75;7.00;;;;;;;16.00;100.00;100621.16;6041610;23;20066;-71
2022/06/30 03:31:42;;;;;;;5.80;5.50;;;;;;;16.92;100.00;100773.06;6041512;23;20357;-75
2022/06/30 03:34:09;;;;;;;7.10;6.70;;;;;;;16.08;100.00;100632.00;6055686;23;20521;-73
2022/06/30 03:36:36;;;;;;;5.65;5.35;;;;;;;17.25;100.00;100829.72;6039618;23;20034;-71
2022/06/30 03:39:02;;;;;;;6.07;5.80;;;;;;;17.29;100.00;100825.84;6045042;23;20028;-73
2022/06/30 03:41:29;;;;;;;6.47;6.00;;;;;;;17.27;100.00;100811.03;6030904;23;20007;-75
2022/06/30 03:43:55;;;;;;;5.20;5.00;;;;;;;17.15;100.00;100781.84;6051572;23;20078;-69
2022/06/30 03:46:22;;;;;;;6.00;5.70;;;;;;;17.38;100.00;100818.13;6046399;23;20070;-75
2022/06/30 03:48:49;;;;;;;5.68;5.28;;;;;;;15.97;100.00;100589.63;6046950;23;20018;-69
2022/06/30 03:51:15;;;;;;;7.25;6.95;;;;;;;17.26;100.00;100782.81;6051710;23;20040;-75
2022/06/30 03:53:42;;;;;;;6.30;5.90;;;;;;;17.53;100.00;100817.75;6044744;23;20265;-74
2022/06/30 03:56:08;;;;;;;7.53;6.82;;;;;;;17.51;100.00;100809.09;6052090;23;20045;-73
2022/06/30 03:58:35;;;;;;;5.68;5.38;;;;;;;17.11;100.00;100767.16;6023678;23;20346;-75
2022/06/30 04:01:01;;;;;;;6.10;5.75;;;;;;;17.26;100.00;100793.41;6049037;23;20015;-74
2022/06/30 04:03:28;;;;;;;5.75;5.45;;;;;;;17.37;100.00;100824.41;6053701;23;20176;-73
2022/06/30 04:05:55;;;;;;;5.70;5.40;;;;;;;17.35;100.00;100811.28;6051476;23;20024;-71
2022/06/30 04:08:21;;;;;;;6.60;6.20;;;;;;;17.38;100.00;100797.78;6057690;23;20125;-75
2022/06/30 04:10:48;;;;;;;6.60;6.10;;;;;;;17.48;100.00;100800.53;6045785;23;20071;-72
2022/06/30 04:13:14;;;;;;;7.80;7.40;;;;;;;16.65;100.00;100611.69;6046846;23;20021;-74
2022/06/30 04:15:41;;;;;;;6.00;5.60;;;;;;;18.54;100.00;100808.69;6027045;23;20085;-73
2022/06/30 04:18:07;;;;;;;7.28;6.88;;;;;;;19.53;100.00;100817.06;6049991;23;20026;-73
2022/06/30 04:20:34;;;;;;;5.68;5.22;;;;;;;20.43;95.50;100814.41;6034249;23;20038;-71
2022/06/30 04:23:00;;;;;;;6.03;5.72;;;;;;;20.04;88.23;100642.06;6030829;23;20042;-75
2022/06/30 04:25:33;;;;;;;5.78;5.47;;;;;;;20.47;83.72;100645.19;6059280;23;20203;-73
2022/06/30 04:28:00;;;;;;;6.22;5.93;;;;;;;21.76;79.71;100773.38;6050448;23;20490;-74
2022/06/30 04:33:12;;;;;;;8.05;7.57;;;;;;;22.74;77.36;100830.44;6048222;23;20021;-76
2022/06/30 04:35:39;;;;;;;6.43;6.07;;;;;;;21.63;73.68;100576.09;6027999;23;20089;-74
2022/06/30 04:38:05;;;;;;;7.90;7.50;;;;;;;23.63;73.10;100817.69;6044294;23;20026;-68
2022/06/30 04:43:17;;;;;;;7.78;7.38;;;;;;;24.26;68.24;100676.91;6045544;23;20391;-67
2022/06/30 04:45:44;;;;;;;6.32;6.03;;;;;;;24.68;66.58;102855.53;6009158;23;20030;-67
2022/06/30 04:48:11;;;;;;;8.68;8.27;;;;;;;25.07;66.11;101723.22;6042674;23;20080;-67
2022/06/30 04:50:39;;;;;;;6.40;6.10;;;;;;;25.31;64.14;101320.66;6049450;23;20228;-69
2022/06/30 04:53:05;;;;;;;7.25;6.88;;;;;;;25.34;62.89;101350.75;6025365;23;20023;-67
2022/06/30 04:55:32;;;;;;;6.85;6.43;;;;;;;25.71;61.72;101247.34;6048500;23;20025;-67
2022/06/30 04:57:58;;;;;;;7.32;6.82;;;;;;;24.90;61.15;101256.81;6027745;23;20452;-67
2022/06/30 05:00:25;;;;;;;6.40;6.00;;;;;;;24.52;60.93;101013.94;6038832;23;20030;-70
2022/06/30 05:02:51;;;;;;;6.57;6.28;;;;;;;26.50;59.67;101246.84;6032014;23;20436;-69
2022/06/30 05:05:18;;;;;;;7.55;7.15;;;;;;;25.80;58.30;101160.34;6046167;23;20231;-71
2022/06/30 05:07:44;;;;;;;6.72;6.32;;;;;;;25.68;58.87;101189.41;6033756;23;20081;-69
2022/06/30 05:10:11;;;;;;;8.27;7.78;;;;;;;25.94;59.57;101192.94;6050933;23;20177;-70
2022/06/30 05:12:37;;;;;;;7.22;6.72;;;;;;;25.95;58.96;101176.66;6024698;23;20106;-72
2022/06/30 05:15:05;;;;;;;7.75;7.35;;;;;;;26.30;59.15;101154.91;6045401;23;20492;-76
2022/06/30 05:17:35;;;;;;;7.03;6.63;;;;;;;25.98;58.42;101103.72;6027294;23;20717;-72
2022/06/30 05:20:02;;;;;;;6.85;6.45;;;;;;;26.13;58.95;101103.00;6049295;23;20281;-76
2022/06/30 05:22:29;;;;;;;6.88;6.47;;;;;;;26.97;57.45;101136.47;6028932;23;20031;-74
2022/06/30 05:27:45;;;;;;;6.65;6.30;;;;;;;27.28;54.60;101121.34;6043091;23;20043;-74
2022/06/30 05:30:12;;;;;;;8.65;8.07;;;;;;;26.70;54.64;101002.34;6014160;23;20476;-73
2022/06/30 05:32:39;;;;;;;7.25;6.75;;;;;;;27.55;53.89;101068.72;6043544;23;20365;-71
2022/06/30 05:35:06;;;;;;;8.60;8.10;;;;;;;26.46;56.03;101161.09;6019444;23;20572;-75
2022/06/30 05:37:33;;;;;;;7.30;6.80;;;;;;;25.82;56.56;100950.41;6045924;23;20046;-69
2022/06/30 05:39:59;;;;;;;7.65;7.10;;;;;;;26.94;55.48;101106.38;6031611;23;20336;-69
2022/06/30 05:42:26;;;;;;;6.90;6.50;;;;;;;26.84;53.73;100998.84;6015965;23;20093;-73
2022/06/30 05:44:53;;;;;;;7.05;6.60;;;;;;;26.13;56.15;100938.91;6031419;23;20464;-74
2022/06/30 05:47:19;;;;;;;7.75;7.35;;;;;;;26.82;55.60;101061.00;6044793;23;20644;-73
2022/06/30 05:49:46;;;;;;;6.85;6.45;;;;;;;26.71;56.81;101056.00;6038584;23;20014;-73
2022/06/30 05:52:12;;;;;;;8.45;7.90;;;;;;;26.77;56.24;101062.53;6007897;23;20495;-69
2022/06/30 05:54:39;;;;;;;6.70;6.35;;;;;;;26.92;54.67;100963.81;6042615;23;20046;-70
2022/06/30 05:57:05;;;;;;;8.07;7.53;;;;;;;27.79;52.55;101049.59;6012101;23;20078;-68
2022/06/30 05:59:33;;;;;;;7.00;6.60;;;;;;;28.01;52.33;101053.28;6046621;23;20069;-68
2022/06/30 06:02:00;;;;;;;6.90;6.50;;;;;;;28.20;51.87;101054.53;6046429;23;20026;-68
2022/06/30 06:04:27;;;;;;;7.40;6.90;;;;;;;28.30;50.29;101042.63;5993024;23;20456;-68
2022/06/30 06:06:54;;;;;;;7.28;6.88;;;;;;;28.82;49.89;101055.94;6051683;23;20017;-68
2022/06/30 06:09:21;;;;;;;7.43;6.93;;;;;;;29.21;48.35;101038.50;6039270;23;20378;-68
2022/06/30 06:11:47;;;;;;;6.68;6.28;;;;;;;29.16;48.02;101051.72;6029839;23;20097;-67
2022/06/30 06:14:14;;;;;;;7.65;7.22;;;;;;;28.72;49.41;101049.19;6042702;23;20050;-68
2022/06/30 06:16:40;;;;;;;7.15;6.70;;;;;;;28.75;49.29;101049.66;6050248;23;20023;-70
2022/06/30 06:19:07;;;;;;;7.32;6.93;;;;;;;28.78;49.57;101051.13;6056864;23;20099;-71
2022/06/30 06:21:36;;;;;;;6.65;6.35;;;;;;;29.12;50.51;101038.81;6022890;23;20017;-72
2022/06/30 06:24:02;;;;;;;7.15;6.72;;;;;;;28.76;49.47;101036.97;5999380;23;20019;-74
2022/06/30 06:26:29;;;;;;;7.05;6.55;;;;;;;28.72;49.53;101022.19;6051785;23;20302;-71
2022/06/30 06:29:08;;;;;;;7.85;7.35;;;;;;;27.73;50.66;100952.44;6020066;23;20116;-73
2022/06/30 06:31:39;;;;;;;7.10;6.70;;;;;;;26.65;52.65;100893.31;6025550;23;20304;-73
2022/06/30 06:34:07;;;;;;;7.85;7.45;;;;;;;26.51;57.00;100988.28;6022965;23;20163;-72
2022/06/30 06:36:34;;;;;;;7.15;6.65;;;;;;;25.99;57.72;100975.44;6022279;23;20020;-71
2022/06/30 06:39:00;;;;;;;7.35;6.95;;;;;;;25.85;59.07;100972.44;6006208;23;20085;-73
2022/06/30 06:41:27;;;;;;;7.38;6.97;;;;;;;25.66;59.55;100948.66;6049343;23;20146;-73
2022/06/30 06:43:54;;;;;;;7.40;6.90;;;;;;;25.39;61.68;100974.91;6008924;23;20121;-72
2022/06/30 06:46:26;;;;;;;7.60;7.20;;;;;;;25.33;61.92;100974.75;6039823;23;20052;-73
2022/06/30 06:49:01;;;;;;;7.00;6.47;;;;;;;25.19;61.32;100952.06;6025795;23;20065;-73
2022/06/30 06:51:28;;;;;;;6.70;6.30;;;;;;;25.55;62.43;100978.56;6041143;23;20069;-70
2022/06/30 06:53:55;;;;;;;7.25;6.80;;;;;;;25.54;61.75;100968.81;6017775;23;20647;-73
2022/06/30 06:56:22;;;;;;;6.70;6.40;;;;;;;24.51;61.54;100805.66;6050791;23;20625;-73
2022/06/30 06:58:56;;;;;;;7.60;7.00;;;;;;;25.67;59.85;100972.66;6037347;23;20083;-72
2022/06/30 07:01:23;;;;;;;7.95;7.35;;;;;;;25.60;59.90;100976.19;6046820;23;20337;-72
2022/06/30 07:03:49;;;;;;;6.78;6.45;;;;;;;25.75;59.94;100974.47;6051070;23;20045;-73
2022/06/30 07:06:16;;;;;;;7.82;7.43;;;;;;;24.51;59.07;100781.50;6017948;23;20257;-74
2022/06/30 07:08:42;;;;;;;6.60;6.30;;;;;;;25.75;59.70;100966.41;6053137;23;20018;-75
2022/06/30 07:11:09;;;;;;;7.70;7.30;;;;;;;25.82;59.79;100951.28;6016225;23;20027;-71
2022/06/30 07:13:35;;;;;;;6.50;6.20;;;;;;;26.01;58.92;100968.03;6024558;23;20022;-75
2022/06/30 07:16:02;;;;;;;7.55;7.15;;;;;;;25.83;59.89;100974.44;6024248;23;20176;-73
2022/06/30 07:18:29;;;;;;;6.90;6.50;;;;;;;25.17;59.28;100905.75;6048785;23;20089;-74
2022/06/30 07:20:56;;;;;;;6.80;6.40;;;;;;;26.02;58.82;100975.06;6013930;23;20045;-73
2022/06/30 07:23:22;;;;;;;7.05;6.65;;;;;;;25.98;56.69;100971.94;6007252;23;20010;-72
2022/06/30 07:25:55;;;;;;;6.50;6.20;;;;;;;26.05;57.53;100983.66;6032078;23;20078;-73
2022/06/30 07:28:21;;;;;;;6.82;6.43;;;;;;;25.90;57.51;100958.53;6021583;23;20038;-72
2022/06/30 07:31:09;;;;;;;7.60;7.20;;;;;;;24.92;57.77;100793.03;6014683;23;20514;-74
2022/06/30 07:33:35;;;;;;;6.40;6.00;;;;;;;25.88;57.05;100958.66;6030481;23;20111;-75
2022/06/30 07:36:02;;;;;;;6.55;6.25;;;;;;;26.00;55.04;100980.66;6012020;23;20027;-74
2022/06/30 07:38:29;;;;;;;6.57;6.18;;;;;;;25.65;53.28;100883.28;6033264;23;20014;-71
2022/06/30 07:40:55;;;;;;;6.35;5.97;;;;;;;26.42;53.31;101013.56;6020710;23;20251;-74
2022/06/30 07:43:22;;;;;;;6.93;6.57;;;;;;;26.18;52.56;100984.94;5983102;23;20269;-73
2022/06/30 07:45:48;;;;;;;6.75;6.40;;;;;;;26.06;52.74;100982.66;6032340;23;20274;-74
2022/06/30 07:48:15;;;;;;;8.18;7.78;;;;;;;26.06;54.86;100982.66;6023372;23;20468;-69
2022/06/30 07:50:41;;;;;;;6.03;5.72;;;;;;;26.42;51.83;100986.66;6043555;23;20030;-69
2022/06/30 07:53:08;;;;;;;8.35;7.95;;;;;;;25.41;50.11;100830.47;6040363;23;20041;-68
2022/06/30 07:55:34;;;;;;;6.90;6.50;;;;;;;24.57;54.65;100792.38;6024433;23;20054;-69
2022/06/30 07:58:01;;;;;;;6.32;6.03;;;;;;;25.78;54.88;100979.53;6050013;23;20089;-75
2022/06/30 08:00:27;;;;;;;7.03;6.63;;;;;;;25.66;56.07;100972.84;6042762;23;20112;-73
2022/06/30 08:02:54;;;;;;;6.78;6.38;;;;;;;26.09;54.19;100977.94;6041430;23;20194;-73
2022/06/30 08:05:20;;;;;;;7.60;7.00;;;;;;;26.55;54.55;101010.31;6056668;23;20062;-73
2022/06/30 08:07:47;;;;;;;6.18;5.88;;;;;;;25.76;54.14;100903.59;6040966;23;20327;-73
2022/06/30 08:10:13;;;;;;;8.20;7.63;;;;;;;25.82;54.11;100918.16;6024312;23;20018;-68
2022/06/30 08:12:40;;;;;;;6.53;6.13;;;;;;;26.56;52.34;100972.47;6037125;23;20014;-69
2022/06/30 08:15:07;;;;;;;6.50;6.20;;;;;;;26.82;51.59;100984.75;6029874;23;20105;-69
2022/06/30 08:17:33;;;;;;;5.90;5.60;;;;;;;26.90;50.73;100983.84;6021986;23;20104;-69
2022/06/30 08:20:00;;;;;;;6.72;6.32;;;;;;;27.00;51.33;100979.91;6054492;23;20023;-69
2022/06/30 08:22:26;;;;;;;6.80;6.38;;;;;;;25.79;48.50;100827.94;6022188;23;20566;-69
2022/06/30 08:24:54;;;;;;;6.30;5.90;;;;;;;26.74;50.45;100974.91;6056125;23;20053;-69
2022/06/30 08:27:21;;;;;;;6.63;6.30;;;;;;;26.21;51.45;100876.97;6022764;23;20234;-69
2022/06/30 08:29:47;;;;;;;5.97;5.68;;;;;;;26.81;52.33;100973.13;6054594;23;20094;-69
2022/06/30 08:32:14;;;;;;;6.38;6.07;;;;;;;26.74;53.06;100965.97;6035620;23;20393;-69
2022/06/30 08:34:41;;;;;;;6.53;5.88;;;;;;;26.72;53.23;100970.69;6051581;23;20022;-70
2022/06/30 08:37:08;;;;;;;7.43;7.03;;;;;;;26.84;52.56;100955.78;6023117;23;20263;-69
2022/06/30 08:42:21;;;;;;;6.90;6.60;;;;;;;25.34;50.85;100756.97;6035570;23;20482;-69
2022/06/30 08:47:35;;;;;;;6.80;6.28;;;;;;;26.38;49.29;100915.38;6058082;23;20159;-69
2022/06/30 08:50:02;;;;;;;6.25;5.95;;;;;;;26.83;49.49;100903.78;6047527;23;20059;-69
2022/06/30 08:52:30;;;;;;;6.15;5.75;;;;;;;26.93;48.03;100856.91;6022671;23;20393;-69
2022/06/30 08:54:59;;;;;;;6.20;5.90;;;;;;;26.35;49.92;100730.06;6050505;23;20028;-69
2022/06/30 08:57:29;;;;;;;6.60;6.20;;;;;;;27.37;49.02;100875.00;6026817;23;20487;-69
2022/06/30 08:59:56;;;;;;;6.90;6.50;;;;;;;27.46;48.77;100863.06;6054718;23;20078;-69
2022/06/30 09:02:23;;;;;;;6.40;6.10;;;;;;;27.34;47.99;100873.50;5997159;23;20125;-69
2022/06/30 09:04:49;;;;;;;6.10;5.80;;;;;;;26.92;46.92;100813.00;6052441;23;20107;-69
2022/06/30 09:07:16;;;;;;;9.00;8.50;;;;;;;27.43;47.35;100861.59;6053795;23;20049;-69
2022/06/30 09:09:42;;;;;;;6.47;6.07;;;;;;;27.23;48.59;100860.47;6048479;23;20369;-69
2022/06/30 09:12:17;;;;;;;7.25;6.85;;;;;;;26.03;49.35;100721.28;6041696;23;20030;-69
2022/06/30 09:14:46;;;;;;;6.82;6.40;;;;;;;27.06;48.96;100860.66;6048092;23;20090;-69
2022/06/30 09:17:20;;;;;;;7.85;7.45;;;;;;;26.61;48.07;100773.56;6048134;23;20029;-69
2022/06/30 09:19:59;;;;;;;6.13;5.82;;;;;;;27.41;47.46;100865.50;6051700;23;20090;-68
2022/06/30 09:22:30;;;;;;;7.07;6.63;;;;;;;27.98;47.02;100859.38;6041589;23;20093;-67
2022/06/30 09:25:09;;;;;;;6.30;6.00;;;;;;;28.40;46.26;100882.03;6044547;23;20025;-68
2022/06/30 09:27:40;;;;;;;6.32;5.97;;;;;;;27.73;46.55;100807.63;6049607;23;20420;-67
2022/06/30 09:30:21;;;;;;;7.20;6.90;;;;;;;27.91;45.76;100838.78;6052482;23;20101;-68
2022/06/30 09:32:48;;;;;;;6.25;5.95;;;;;;;27.91;46.97;100846.88;5999402;23;20109;-68
2022/06/30 09:35:16;;;;;;;7.70;7.30;;;;;;;28.09;46.22;100841.88;6049038;23;20046;-68
2022/06/30 09:37:43;;;;;;;6.40;6.10;;;;;;;28.52;46.28;100841.06;6054370;23;20101;-67
2022/06/30 09:40:11;;;;;;;6.63;6.30;;;;;;;28.32;45.88;100833.56;6008339;23;20023;-68
2022/06/30 09:42:46;;;;;;;6.30;6.00;;;;;;;28.20;46.66;100808.13;6049726;23;20089;-67
2022/06/30 09:45:51;;;;;;;6.57;6.18;;;;;;;28.34;44.92;100847.72;6008738;23;20142;-68
2022/06/30 09:48:17;;;;;;;7.78;7.38;;;;;;;28.37;43.95;100841.94;6027815;23;20033;-67
2022/06/30 09:50:56;;;;;;;6.65;6.25;;;;;;;28.23;45.87;100840.97;6032163;23;20025;-67
2022/06/30 09:53:22;;;;;;;7.78;7.38;;;;;;;28.53;44.83;100840.03;6042162;23;20015;-71
2022/06/30 09:55:49;;;;;;;6.10;5.65;;;;;;;28.02;44.42;100819.38;6036780;23;20082;-73
2022/06/30 09:58:34;;;;;;;7.75;7.35;;;;;;;28.15;43.38;100837.59;6045066;23;20014;-71
2022/06/30 10:01:01;;;;;;;6.55;6.22;;;;;;;28.12;43.16;100841.47;6024421;23;20019;-74
2022/06/30 10:03:33;;;;;;;6.15;5.85;;;;;;;28.37;43.91;100827.63;6057742;23;20443;-71
2022/06/30 10:06:09;;;;;;;6.00;5.70;;;;;;;28.71;43.40;100831.47;6007942;23;20022;-74
2022/06/30 10:08:36;;;;;;;6.20;5.90;;;;;;;27.88;43.13;100661.13;6053407;23;20050;-73
2022/06/30 10:11:02;;;;;;;6.28;5.97;;;;;;;29.17;40.82;100833.66;6029469;23;20252;-73
2022/06/30 10:13:34;;;;;;;6.00;5.70;;;;;;;28.30;41.63;100671.00;6029567;23;20030;-71
2022/06/30 10:16:03;;;;;;;6.23;5.93;;;;;;;29.23;42.14;100836.38;6013791;23;20451;-74
2022/06/30 10:18:35;;;;;;;6.38;5.97;;;;;;;29.30;41.18;100822.91;6013154;23;20296;-70
2022/06/30 10:21:02;;;;;;;6.53;6.23;;;;;;;28.30;42.61;100689.06;6057267;23;20042;-73
2022/06/30 10:23:29;;;;;;;6.03;5.72;;;;;;;28.48;42.36;100756.03;6048097;23;20018;-71
2022/06/30 10:25:55;;;;;;;6.10;5.80;;;;;;;28.79;40.67;100825.91;6053641;23;20018;-72
2022/06/30 10:28:25;;;;;;;7.00;6.60;;;;;;;28.20;41.78;100727.19;6038005;23;20037;-73
2022/06/30 10:31:21;;;;;;;6.20;5.90;;;;;;;28.76;42.57;100799.28;6055186;23;20041;-74
2022/06/30 10:34:08;;;;;;;6.28;5.97;;;;;;;29.18;41.35;100811.00;6042181;23;20042;-73
2022/06/30 10:36:46;;;;;;;6.35;6.05;;;;;;;28.81;42.47;100792.25;6049947;23;20238;-72
2022/06/30 10:39:18;;;;;;;8.45;8.05;;;;;;;28.94;42.24;100802.28;6037398;23;20461;-73
2022/06/30 10:41:47;;;;;;;6.30;6.00;;;;;;;29.13;41.84;100808.06;6032865;23;19998;-71
2022/06/30 10:44:18;;;;;;;7.40;7.00;;;;;;;29.23;42.07;100806.66;6022635;23;20089;-71
2022/06/30 10:46:45;;;;;;;6.15;5.85;;;;;;;29.34;41.55;100807.94;6055033;23;20022;-71
2022/06/30 10:49:13;;;;;;;7.45;7.05;;;;;;;29.56;41.72;100816.78;6051200;23;20015;-72
2022/06/30 10:51:40;;;;;;;6.00;5.70;;;;;;;29.70;41.06;100824.94;6050576;23;20062;-70
2022/06/30 10:54:08;;;;;;;7.88;7.47;;;;;;;29.67;41.69;100825.34;6036305;23;20160;-72
2022/06/30 10:57:07;;;;;;;6.18;5.88;;;;;;;29.63;39.65;100806.00;6038481;23;20270;-71
2022/06/30 10:59:39;;;;;;;6.78;6.38;;;;;;;29.22;41.60;100780.66;5969341;23;20019;-72
2022/06/30 11:02:12;;;;;;;;;;;;;;;29.44;40.73;100794.06;6051450;23;20068;-73
2022/06/30 11:04:39;;;;;;;6.57;6.20;;;;;;;29.73;41.10;100797.50;6035169;23;19919;-67
2022/06/30 11:07:14;;;;;;;7.30;6.90;;;;;;;29.15;41.57;100787.91;6029902;23;20109;-66
2022/06/30 11:09:43;;;;;;;6.13;5.82;;;;;;;29.24;43.06;100780.44;6050234;23;20754;-67
2022/06/30 11:12:15;;;;;;;8.40;7.90;;;;;;;28.86;43.09;100728.69;6051723;23;20034;-65
2022/06/30 11:14:51;;;;;;;6.47;6.18;;;;;;;29.54;42.29;100791.81;6051008;23;20022;-66
2022/06/30 11:17:23;;;;;;;6.70;6.30;;;;;;;29.69;42.46;100880.91;6048146;23;20026;-73
2022/06/30 11:20:15;;;;;;;6.80;6.40;;;;;;;29.75;41.23;100858.50;6022667;23;20094;-71
2022/06/30 11:22:44;;;;;;;;;;;;;;;29.82;41.64;100835.00;6035091;23;20018;-74
2022/06/30 11:28:12;;;;;;;7.60;7.20;;;;;;;29.51;41.99;100813.84;6048154;23;20046;-66
2022/06/30 11:30:39;;;;;;;6.57;6.28;;;;;;;29.35;42.00;100806.09;6047517;23;20644;-65
2022/06/30 11:33:06;;;;;;;7.43;7.03;;;;;;;29.33;41.69;100803.59;6049660;23;20400;-66
2022/06/30 11:35:33;;;;;;;6.40;6.00;;;;;;;29.51;41.74;100788.66;6032096;23;20078;-66
2022/06/30 11:38:00;;;;;;;6.20;5.90;;;;;;;29.42;42.21;100788.00;6047480;23;20474;-67
2022/06/30 11:40:31;;;;;;;6.53;6.20;;;;;;;29.40;42.41;100774.69;6011383;23;20038;-67
2022/06/30 11:42:57;;;;;;;6.65;6.07;;;;;;;29.21;42.07;100797.91;6051823;23;20016;-66
2022/06/30 11:45:24;;;;;;;7.05;6.65;;;;;;;28.36;42.47;100631.59;6034727;23;20109;-66
2022/06/30 11:47:56;;;;;;;6.55;6.15;;;;;;;29.12;43.73;100766.66;6054558;23;20094;-66